sensor_id;sensor_type;location;lat;lon;timestamp;pressure;altitude;pressure_sealevel;temperature;humidity
73974;BME280;62336;-26.094;27.994;2023-06-26T00:01:42;85179.42;;;22.33;16.31
73974;BME280;62336;-26.094;27.994;2023-06-26T00:04:08;85182.78;;;23.04;16.41
73974;BME280;62336;-26.094;27.994;2023-06-26T00:06:33;85184.41;;;22.79;16.48
73974;BME280;62336;-26.094;27.994;2023-06-26T00:08:58;85182.86;;;22.28;16.93
73974;BME280;62336;-26.094;27.994;2023-06-26T00:11:24;85181.78;;;22.54;16.99
73974;BME280;62336;-26.094;27.994;2023-06-26T00:13:49;85184.74;;;22.57;16.65
73974;BME280;62336;-26.094;27.994;2023-06-26T00:16:14;85184.80;;;22.30;16.59
73974;BME280;62336;-26.094;27.994;2023-06-26T00:18:39;85187.17;;;22.43;16.83
73974;BME280;62336;-26.094;27.994;2023-06-26T00:21:05;85183.09;;;22.54;16.59
73974;BME280;62336;-26.094;27.994;2023-06-26T00:23:30;85182.97;;;22.61;16.48
73974;BME280;62336;-26.094;27.994;2023-06-26T00:25:56;85182.48;;;22.71;16.39
73974;BME280;62336;-26.094;27.994;2023-06-26T00:28:21;85182.92;;;22.49;16.27
73974;BME280;62336;-26.094;27.994;2023-06-26T00:30:46;85185.56;;;22.47;16.52
73974;BME280;62336;-26.094;27.994;2023-06-26T00:33:13;85186.77;;;22.61;16.72
73974;BME280;62336;-26.094;27.994;2023-06-26T00:35:38;85184.79;;;22.76;16.49
73974;BME280;62336;-26.094;27.994;2023-06-26T00:38:03;85184.86;;;22.84;16.41
73974;BME280;62336;-26.094;27.994;2023-06-26T00:40:29;85185.45;;;22.94;16.29
73974;BME280;62336;-26.094;27.994;2023-06-26T00:42:55;85188.04;;;22.66;16.47
73974;BME280;62336;-26.094;27.994;2023-06-26T00:45:21;85183.98;;;22.57;16.47
73974;BME280;62336;-26.094;27.994;2023-06-26T00:47:45;85176.66;;;22.85;16.50
73974;BME280;62336;-26.094;27.994;2023-06-26T00:50:11;85175.58;;;22.89;16.40
73974;BME280;62336;-26.094;27.994;2023-06-26T00:52:37;85175.63;;;22.72;16.33
73974;BME280;62336;-26.094;27.994;2023-06-26T00:55:02;85177.90;;;22.96;16.52
73974;BME280;62336;-26.094;27.994;2023-06-26T00:57:28;85177.18;;;22.28;16.63
73974;BME280;62336;-26.094;27.994;2023-06-26T00:59:53;85178.40;;;22.41;16.82
73974;BME280;62336;-26.094;27.994;2023-06-26T01:02:18;85176.95;;;22.09;17.13
73974;BME280;62336;-26.094;27.994;2023-06-26T01:04:44;85177.29;;;22.06;17.00
73974;BME280;62336;-26.094;27.994;2023-06-26T01:07:09;85176.11;;;21.93;16.99
73974;BME280;62336;-26.094;27.994;2023-06-26T01:09:35;85174.83;;;22.11;16.94
73974;BME280;62336;-26.094;27.994;2023-06-26T01:12:00;85174.48;;;22.49;16.68
73974;BME280;62336;-26.094;27.994;2023-06-26T01:14:27;85172.97;;;22.25;16.84
73974;BME280;62336;-26.094;27.994;2023-06-26T01:16:52;85174.60;;;22.19;16.89
73974;BME280;62336;-26.094;27.994;2023-06-26T01:19:24;85175.03;;;22.30;16.81
73974;BME280;62336;-26.094;27.994;2023-06-26T01:21:45;85170.51;;;22.16;17.05
73974;BME280;62336;-26.094;27.994;2023-06-26T01:24:15;85169.97;;;22.60;16.90
73974;BME280;62336;-26.094;27.994;2023-06-26T01:26:34;85169.10;;;22.10;16.95
73974;BME280;62336;-26.094;27.994;2023-06-26T01:28:59;85170.95;;;22.29;17.26
73974;BME280;62336;-26.094;27.994;2023-06-26T01:31:25;85167.66;;;22.33;16.94
73974;BME280;62336;-26.094;27.994;2023-06-26T01:33:50;85167.51;;;22.28;17.21
73974;BME280;62336;-26.094;27.994;2023-06-26T01:36:15;85166.42;;;22.40;17.05
73974;BME280;62336;-26.094;27.994;2023-06-26T01:38:40;85164.42;;;22.24;17.01
73974;BME280;62336;-26.094;27.994;2023-06-26T01:41:07;85162.21;;;22.40;17.38
73974;BME280;62336;-26.094;27.994;2023-06-26T01:43:40;85163.16;;;22.22;17.34
73974;BME280;62336;-26.094;27.994;2023-06-26T01:46:01;85161.77;;;22.10;17.31
73974;BME280;62336;-26.094;27.994;2023-06-26T01:48:25;85161.49;;;22.07;17.29
73974;BME280;62336;-26.094;27.994;2023-06-26T01:50:49;85158.96;;;22.39;16.96
73974;BME280;62336;-26.094;27.994;2023-06-26T01:53:18;85158.30;;;21.86;17.66
73974;BME280;62336;-26.094;27.994;2023-06-26T01:55:42;85164.16;;;22.12;17.62
73974;BME280;62336;-26.094;27.994;2023-06-26T01:58:04;85162.94;;;21.86;17.58
73974;BME280;62336;-26.094;27.994;2023-06-26T02:00:30;85161.20;;;21.62;17.83
73974;BME280;62336;-26.094;27.994;2023-06-26T02:02:55;85162.77;;;21.66;17.80
73974;BME280;62336;-26.094;27.994;2023-06-26T02:05:20;85166.59;;;21.88;17.43
73974;BME280;62336;-26.094;27.994;2023-06-26T02:07:46;85161.27;;;21.82;17.86
73974;BME280;62336;-26.094;27.994;2023-06-26T02:10:12;85159.21;;;21.63;17.91
73974;BME280;62336;-26.094;27.994;2023-06-26T02:12:38;85161.60;;;21.77;17.97
73974;BME280;62336;-26.094;27.994;2023-06-26T02:15:03;85164.47;;;21.67;17.79
73974;BME280;62336;-26.094;27.994;2023-06-26T02:17:28;85161.86;;;21.76;17.75
73974;BME280;62336;-26.094;27.994;2023-06-26T02:19:53;85159.43;;;21.88;17.87
73974;BME280;62336;-26.094;27.994;2023-06-26T02:22:19;85160.09;;;21.89;17.73
73974;BME280;62336;-26.094;27.994;2023-06-26T02:24:44;85165.10;;;21.95;17.79
73974;BME280;62336;-26.094;27.994;2023-06-26T02:27:10;85165.10;;;21.72;17.73
73974;BME280;62336;-26.094;27.994;2023-06-26T02:29:35;85158.61;;;21.90;17.92
73974;BME280;62336;-26.094;27.994;2023-06-26T02:32:00;85162.50;;;21.85;17.90
73974;BME280;62336;-26.094;27.994;2023-06-26T02:34:27;85167.89;;;21.56;18.23
73974;BME280;62336;-26.094;27.994;2023-06-26T02:36:52;85170.33;;;21.48;18.20
73974;BME280;62336;-26.094;27.994;2023-06-26T02:39:17;85170.26;;;21.63;17.96
73974;BME280;62336;-26.094;27.994;2023-06-26T02:41:42;85169.19;;;21.35;18.22
73974;BME280;62336;-26.094;27.994;2023-06-26T02:44:08;85168.65;;;21.41;18.10
73974;BME280;62336;-26.094;27.994;2023-06-26T02:46:34;85166.89;;;21.76;18.05
73974;BME280;62336;-26.094;27.994;2023-06-26T02:49:00;85173.71;;;21.68;17.90
73974;BME280;62336;-26.094;27.994;2023-06-26T02:51:26;85171.78;;;21.83;17.85
73974;BME280;62336;-26.094;27.994;2023-06-26T02:53:51;85177.97;;;22.03;17.82
73974;BME280;62336;-26.094;27.994;2023-06-26T02:56:16;85173.44;;;21.88;17.94
73974;BME280;62336;-26.094;27.994;2023-06-26T02:58:42;85173.51;;;21.72;18.14
73974;BME280;62336;-26.094;27.994;2023-06-26T03:01:07;85176.72;;;21.92;18.02
73974;BME280;62336;-26.094;27.994;2023-06-26T03:03:32;85176.54;;;21.59;18.03
73974;BME280;62336;-26.094;27.994;2023-06-26T03:05:58;85175.43;;;21.27;18.21
73974;BME280;62336;-26.094;27.994;2023-06-26T03:08:23;85178.07;;;22.11;18.02
73974;BME280;62336;-26.094;27.994;2023-06-26T03:10:48;85177.13;;;21.29;18.38
73974;BME280;62336;-26.094;27.994;2023-06-26T03:13:13;85177.12;;;21.52;18.38
73974;BME280;62336;-26.094;27.994;2023-06-26T03:15:38;85177.71;;;21.56;18.40
73974;BME280;62336;-26.094;27.994;2023-06-26T03:18:04;85176.87;;;21.47;18.20
73974;BME280;62336;-26.094;27.994;2023-06-26T03:20:29;85178.25;;;21.98;18.02
73974;BME280;62336;-26.094;27.994;2023-06-26T03:22:55;85179.74;;;21.62;18.48
73974;BME280;62336;-26.094;27.994;2023-06-26T03:25:20;85179.01;;;21.22;18.51
73974;BME280;62336;-26.094;27.994;2023-06-26T03:27:45;85179.31;;;21.65;18.19
73974;BME280;62336;-26.094;27.994;2023-06-26T03:30:12;85175.33;;;20.92;18.43
73974;BME280;62336;-26.094;27.994;2023-06-26T03:32:36;85177.08;;;20.86;18.78
73974;BME280;62336;-26.094;27.994;2023-06-26T03:35:01;85181.48;;;20.91;18.66
73974;BME280;62336;-26.094;27.994;2023-06-26T03:37:27;85186.60;;;21.73;18.52
73974;BME280;62336;-26.094;27.994;2023-06-26T03:39:52;85186.44;;;20.95;18.63
73974;BME280;62336;-26.094;27.994;2023-06-26T03:42:17;85188.66;;;21.51;18.57
73974;BME280;62336;-26.094;27.994;2023-06-26T03:44:43;85191.76;;;20.93;18.85
73974;BME280;62336;-26.094;27.994;2023-06-26T03:47:08;85195.30;;;20.62;19.04
73974;BME280;62336;-26.094;27.994;2023-06-26T03:49:33;85193.54;;;20.78;18.86
73974;BME280;62336;-26.094;27.994;2023-06-26T03:51:59;85199.88;;;21.19;18.72
73974;BME280;62336;-26.094;27.994;2023-06-26T03:54:25;85198.19;;;21.21;18.82
73974;BME280;62336;-26.094;27.994;2023-06-26T03:56:50;85202.34;;;20.32;19.17
73974;BME280;62336;-26.094;27.994;2023-06-26T03:59:16;85205.72;;;20.92;18.88
73974;BME280;62336;-26.094;27.994;2023-06-26T04:01:41;85203.94;;;20.75;19.03
73974;BME280;62336;-26.094;27.994;2023-06-26T04:04:06;85203.52;;;20.76;19.25
73974;BME280;62336;-26.094;27.994;2023-06-26T04:06:32;85205.48;;;20.96;19.01
73974;BME280;62336;-26.094;27.994;2023-06-26T04:08:57;85209.12;;;21.17;18.91
73974;BME280;62336;-26.094;27.994;2023-06-26T04:11:25;85211.90;;;21.01;18.78
73974;BME280;62336;-26.094;27.994;2023-06-26T04:13:48;85217.96;;;21.46;18.72
73974;BME280;62336;-26.094;27.994;2023-06-26T04:16:13;85220.59;;;20.71;19.11
73974;BME280;62336;-26.094;27.994;2023-06-26T04:18:39;85217.12;;;21.07;19.26
73974;BME280;62336;-26.094;27.994;2023-06-26T04:21:08;85219.37;;;20.94;19.34
73974;BME280;62336;-26.094;27.994;2023-06-26T04:23:29;85220.74;;;20.94;19.10
73974;BME280;62336;-26.094;27.994;2023-06-26T04:25:55;85220.33;;;21.28;18.84
73974;BME280;62336;-26.094;27.994;2023-06-26T04:28:20;85221.23;;;20.69;19.43
73974;BME280;62336;-26.094;27.994;2023-06-26T04:30:46;85223.87;;;20.87;19.26
73974;BME280;62336;-26.094;27.994;2023-06-26T04:33:12;85223.62;;;21.01;19.23
73974;BME280;62336;-26.094;27.994;2023-06-26T04:35:38;85224.60;;;21.05;19.24
73974;BME280;62336;-26.094;27.994;2023-06-26T04:38:03;85223.98;;;21.07;18.86
73974;BME280;62336;-26.094;27.994;2023-06-26T04:40:28;85226.98;;;21.02;18.80
73974;BME280;62336;-26.094;27.994;2023-06-26T04:42:53;85225.94;;;21.38;18.76
73974;BME280;62336;-26.094;27.994;2023-06-26T04:45:18;85230.21;;;21.15;19.14
73974;BME280;62336;-26.094;27.994;2023-06-26T04:47:45;85230.91;;;21.17;19.06
73974;BME280;62336;-26.094;27.994;2023-06-26T04:50:09;85236.43;;;21.09;18.70
73974;BME280;62336;-26.094;27.994;2023-06-26T04:52:35;85236.76;;;20.87;19.15
73974;BME280;62336;-26.094;27.994;2023-06-26T04:55:00;85234.89;;;20.93;19.12
73974;BME280;62336;-26.094;27.994;2023-06-26T04:57:27;85234.52;;;21.39;18.90
73974;BME280;62336;-26.094;27.994;2023-06-26T04:59:51;85241.54;;;21.13;18.87
73974;BME280;62336;-26.094;27.994;2023-06-26T05:02:16;85239.41;;;20.99;18.92
73974;BME280;62336;-26.094;27.994;2023-06-26T05:04:42;85238.75;;;20.73;19.55
73974;BME280;62336;-26.094;27.994;2023-06-26T05:07:07;85240.60;;;20.30;19.58
73974;BME280;62336;-26.094;27.994;2023-06-26T05:09:33;85240.81;;;21.02;19.08
73974;BME280;62336;-26.094;27.994;2023-06-26T05:11:58;85241.71;;;21.25;19.05
73974;BME280;62336;-26.094;27.994;2023-06-26T05:14:23;85240.67;;;21.37;18.58
73974;BME280;62336;-26.094;27.994;2023-06-26T05:16:48;85237.54;;;21.04;18.74
73974;BME280;62336;-26.094;27.994;2023-06-26T05:19:14;85235.61;;;21.23;18.79
73974;BME280;62336;-26.094;27.994;2023-06-26T05:21:40;85241.83;;;21.31;19.14
73974;BME280;62336;-26.094;27.994;2023-06-26T05:24:06;85245.12;;;21.34;19.10
73974;BME280;62336;-26.094;27.994;2023-06-26T05:26:31;85249.89;;;21.24;19.15
73974;BME280;62336;-26.094;27.994;2023-06-26T05:28:56;85253.19;;;21.13;19.32
73974;BME280;62336;-26.094;27.994;2023-06-26T05:31:22;85259.40;;;20.96;19.36
73974;BME280;62336;-26.094;27.994;2023-06-26T05:33:47;85259.85;;;20.62;19.24
73974;BME280;62336;-26.094;27.994;2023-06-26T05:36:13;85261.95;;;20.37;19.63
73974;BME280;62336;-26.094;27.994;2023-06-26T05:38:37;85266.65;;;20.76;19.72
73974;BME280;62336;-26.094;27.994;2023-06-26T05:41:02;85265.71;;;20.95;19.42
73974;BME280;62336;-26.094;27.994;2023-06-26T05:43:28;85269.47;;;20.53;19.64
73974;BME280;62336;-26.094;27.994;2023-06-26T05:45:53;85273.66;;;21.05;19.48
73974;BME280;62336;-26.094;27.994;2023-06-26T05:48:19;85279.51;;;20.70;19.79
73974;BME280;62336;-26.094;27.994;2023-06-26T05:50:44;85283.62;;;20.29;19.90
73974;BME280;62336;-26.094;27.994;2023-06-26T05:53:10;85285.52;;;20.85;19.55
73974;BME280;62336;-26.094;27.994;2023-06-26T05:55:36;85284.62;;;21.05;19.47
73974;BME280;62336;-26.094;27.994;2023-06-26T05:58:00;85287.76;;;20.78;19.64
73974;BME280;62336;-26.094;27.994;2023-06-26T06:00:28;85285.50;;;21.37;19.25
73974;BME280;62336;-26.094;27.994;2023-06-26T06:02:51;85286.42;;;20.91;19.50
73974;BME280;62336;-26.094;27.994;2023-06-26T06:05:16;85286.47;;;21.15;19.37
73974;BME280;62336;-26.094;27.994;2023-06-26T06:07:41;85288.34;;;20.61;19.41
73974;BME280;62336;-26.094;27.994;2023-06-26T06:10:07;85284.24;;;21.06;19.48
73974;BME280;62336;-26.094;27.994;2023-06-26T06:12:32;85283.56;;;21.66;19.32
73974;BME280;62336;-26.094;27.994;2023-06-26T06:14:58;85280.77;;;21.68;19.02
73974;BME280;62336;-26.094;27.994;2023-06-26T06:17:24;85284.18;;;21.75;19.17
73974;BME280;62336;-26.094;27.994;2023-06-26T06:19:50;85284.51;;;21.77;18.89
73974;BME280;62336;-26.094;27.994;2023-06-26T06:22:15;85285.07;;;21.92;18.93
73974;BME280;62336;-26.094;27.994;2023-06-26T06:24:40;85288.35;;;22.08;19.27
73974;BME280;62336;-26.094;27.994;2023-06-26T06:27:05;85294.26;;;22.68;18.63
73974;BME280;62336;-26.094;27.994;2023-06-26T06:29:30;85293.02;;;22.42;18.88
73974;BME280;62336;-26.094;27.994;2023-06-26T06:31:57;85293.13;;;22.45;18.80
73974;BME280;62336;-26.094;27.994;2023-06-26T06:34:21;85291.28;;;23.10;18.34
73974;BME280;62336;-26.094;27.994;2023-06-26T06:36:48;85294.32;;;23.24;18.39
73974;BME280;62336;-26.094;27.994;2023-06-26T06:39:12;85293.65;;;22.80;18.65
73974;BME280;62336;-26.094;27.994;2023-06-26T06:41:39;85293.05;;;23.20;18.48
73974;BME280;62336;-26.094;27.994;2023-06-26T06:44:04;85290.98;;;23.12;17.85
73974;BME280;62336;-26.094;27.994;2023-06-26T06:46:30;85293.56;;;23.67;17.19
73974;BME280;62336;-26.094;27.994;2023-06-26T06:48:56;85294.76;;;23.57;17.23
73974;BME280;62336;-26.094;27.994;2023-06-26T06:51:20;85296.99;;;23.65;17.10
73974;BME280;62336;-26.094;27.994;2023-06-26T06:53:45;85300.62;;;23.79;17.01
73974;BME280;62336;-26.094;27.994;2023-06-26T06:56:11;85299.26;;;23.88;16.65
73974;BME280;62336;-26.094;27.994;2023-06-26T06:58:37;85295.30;;;23.92;16.14
73974;BME280;62336;-26.094;27.994;2023-06-26T07:01:03;85296.14;;;24.46;15.93
73974;BME280;62336;-26.094;27.994;2023-06-26T07:03:27;85298.41;;;23.98;16.07
73974;BME280;62336;-26.094;27.994;2023-06-26T07:05:52;85295.35;;;24.69;15.48
73974;BME280;62336;-26.094;27.994;2023-06-26T07:08:19;85295.75;;;24.32;15.72
73974;BME280;62336;-26.094;27.994;2023-06-26T07:10:43;85296.33;;;24.69;15.54
73974;BME280;62336;-26.094;27.994;2023-06-26T07:13:10;85298.62;;;24.38;15.70
73974;BME280;62336;-26.094;27.994;2023-06-26T07:15:34;85295.81;;;24.63;15.65
73974;BME280;62336;-26.094;27.994;2023-06-26T07:18:00;85295.93;;;24.50;15.83
73974;BME280;62336;-26.094;27.994;2023-06-26T07:20:25;85299.72;;;25.30;15.46
73974;BME280;62336;-26.094;27.994;2023-06-26T07:22:52;85302.52;;;24.98;15.46
73974;BME280;62336;-26.094;27.994;2023-06-26T07:25:16;85304.55;;;25.09;15.67
73974;BME280;62336;-26.094;27.994;2023-06-26T07:27:41;85300.55;;;25.23;15.72
73974;BME280;62336;-26.094;27.994;2023-06-26T07:30:07;85297.97;;;25.28;15.61
73974;BME280;62336;-26.094;27.994;2023-06-26T07:32:31;85296.15;;;25.84;15.17
73974;BME280;62336;-26.094;27.994;2023-06-26T07:34:57;85296.54;;;25.61;14.99
73974;BME280;62336;-26.094;27.994;2023-06-26T07:37:22;85295.29;;;25.56;15.21
73974;BME280;62336;-26.094;27.994;2023-06-26T07:39:54;85292.35;;;26.08;14.92
73974;BME280;62336;-26.094;27.994;2023-06-26T07:42:13;85287.73;;;25.96;14.00
73974;BME280;62336;-26.094;27.994;2023-06-26T07:44:38;85290.34;;;25.59;14.47
73974;BME280;62336;-26.094;27.994;2023-06-26T07:47:04;85290.30;;;26.17;14.31
73974;BME280;62336;-26.094;27.994;2023-06-26T07:49:31;85288.83;;;26.03;13.98
73974;BME280;62336;-26.094;27.994;2023-06-26T07:51:55;85288.48;;;26.44;14.33
73974;BME280;62336;-26.094;27.994;2023-06-26T07:54:21;85289.16;;;26.71;13.85
73974;BME280;62336;-26.094;27.994;2023-06-26T07:56:55;85285.88;;;26.09;13.88
73974;BME280;62336;-26.094;27.994;2023-06-26T07:59:11;85285.05;;;26.41;13.87
73974;BME280;62336;-26.094;27.994;2023-06-26T08:01:38;85289.08;;;26.31;14.12
73974;BME280;62336;-26.094;27.994;2023-06-26T08:04:02;85287.77;;;26.45;13.80
73974;BME280;62336;-26.094;27.994;2023-06-26T08:06:27;85284.13;;;27.11;13.42
73974;BME280;62336;-26.094;27.994;2023-06-26T08:08:52;85283.90;;;27.34;13.70
73974;BME280;62336;-26.094;27.994;2023-06-26T08:11:17;85281.12;;;26.86;13.54
73974;BME280;62336;-26.094;27.994;2023-06-26T08:13:45;85280.67;;;27.18;13.42
73974;BME280;62336;-26.094;27.994;2023-06-26T08:16:09;85283.95;;;27.24;13.40
73974;BME280;62336;-26.094;27.994;2023-06-26T08:18:34;85283.28;;;27.32;13.16
73974;BME280;62336;-26.094;27.994;2023-06-26T08:21:00;85282.32;;;27.38;13.21
73974;BME280;62336;-26.094;27.994;2023-06-26T08:23:26;85284.43;;;27.54;13.27
73974;BME280;62336;-26.094;27.994;2023-06-26T08:25:52;85282.64;;;27.52;13.60
73974;BME280;62336;-26.094;27.994;2023-06-26T08:28:15;85281.00;;;27.91;12.85
73974;BME280;62336;-26.094;27.994;2023-06-26T08:30:41;85277.25;;;27.89;12.84
73974;BME280;62336;-26.094;27.994;2023-06-26T08:33:06;85272.76;;;27.97;12.88
73974;BME280;62336;-26.094;27.994;2023-06-26T08:35:31;85267.94;;;28.32;12.68
73974;BME280;62336;-26.094;27.994;2023-06-26T08:37:58;85271.06;;;28.01;12.85
73974;BME280;62336;-26.094;27.994;2023-06-26T08:40:22;85267.01;;;28.43;12.43
73974;BME280;62336;-26.094;27.994;2023-06-26T08:42:47;85263.16;;;28.32;12.47
73974;BME280;62336;-26.094;27.994;2023-06-26T08:45:13;85265.27;;;28.47;12.48
73974;BME280;62336;-26.094;27.994;2023-06-26T08:47:42;85261.49;;;28.52;12.34
73974;BME280;62336;-26.094;27.994;2023-06-26T08:50:08;85260.45;;;28.32;12.62
73974;BME280;62336;-26.094;27.994;2023-06-26T08:52:33;85258.12;;;28.53;12.23
73974;BME280;62336;-26.094;27.994;2023-06-26T08:54:59;85253.05;;;28.44;12.26
73974;BME280;62336;-26.094;27.994;2023-06-26T08:57:22;85252.65;;;29.17;12.32
73974;BME280;62336;-26.094;27.994;2023-06-26T08:59:46;85247.67;;;28.47;12.14
73974;BME280;62336;-26.094;27.994;2023-06-26T09:02:12;85245.54;;;29.02;12.17
73974;BME280;62336;-26.094;27.994;2023-06-26T09:04:37;85248.41;;;29.19;12.23
73974;BME280;62336;-26.094;27.994;2023-06-26T09:07:02;85242.46;;;28.48;12.12
73974;BME280;62336;-26.094;27.994;2023-06-26T09:09:29;85237.80;;;28.89;12.26
73974;BME280;62336;-26.094;27.994;2023-06-26T09:11:54;85234.60;;;28.57;11.74
73974;BME280;62336;-26.094;27.994;2023-06-26T09:14:18;85232.27;;;29.02;11.95
73974;BME280;62336;-26.094;27.994;2023-06-26T09:16:46;85223.06;;;29.21;11.87
73974;BME280;62336;-26.094;27.994;2023-06-26T09:19:11;85220.39;;;29.19;11.73
73974;BME280;62336;-26.094;27.994;2023-06-26T09:21:35;85216.00;;;29.40;11.71
73974;BME280;62336;-26.094;27.994;2023-06-26T09:24:02;85211.61;;;29.40;11.73
73974;BME280;62336;-26.094;27.994;2023-06-26T09:26:27;85203.68;;;30.13;11.73
73974;BME280;62336;-26.094;27.994;2023-06-26T09:28:52;85203.16;;;29.43;11.83
73974;BME280;62336;-26.094;27.994;2023-06-26T09:31:17;85199.23;;;29.31;11.83
73974;BME280;62336;-26.094;27.994;2023-06-26T09:33:43;85195.24;;;28.97;11.94
73974;BME280;62336;-26.094;27.994;2023-06-26T09:36:09;85185.84;;;29.52;11.59
73974;BME280;62336;-26.094;27.994;2023-06-26T09:38:35;85185.55;;;29.70;11.20
73974;BME280;62336;-26.094;27.994;2023-06-26T09:41:00;85179.02;;;29.50;11.49
73974;BME280;62336;-26.094;27.994;2023-06-26T09:43:27;85177.63;;;29.65;11.81
73974;BME280;62336;-26.094;27.994;2023-06-26T09:45:51;85176.93;;;29.93;10.95
73974;BME280;62336;-26.094;27.994;2023-06-26T09:48:16;85175.18;;;30.34;11.01
73974;BME280;62336;-26.094;27.994;2023-06-26T09:50:42;85169.00;;;30.43;10.90
73974;BME280;62336;-26.094;27.994;2023-06-26T09:53:09;85167.42;;;30.15;10.73
73974;BME280;62336;-26.094;27.994;2023-06-26T09:55:35;85157.42;;;30.23;10.80
73974;BME280;62336;-26.094;27.994;2023-06-26T09:57:59;85156.56;;;30.36;10.76
73974;BME280;62336;-26.094;27.994;2023-06-26T10:00:23;85154.29;;;30.07;11.59
73974;BME280;62336;-26.094;27.994;2023-06-26T10:02:49;85152.62;;;30.22;10.87
73974;BME280;62336;-26.094;27.994;2023-06-26T10:05:15;85150.04;;;30.26;10.78
73974;BME280;62336;-26.094;27.994;2023-06-26T10:07:41;85142.75;;;29.45;10.77
73974;BME280;62336;-26.094;27.994;2023-06-26T10:10:08;85141.12;;;30.43;11.08
73974;BME280;62336;-26.094;27.994;2023-06-26T10:12:32;85135.35;;;30.49;10.86
73974;BME280;62336;-26.094;27.994;2023-06-26T10:14:59;85135.38;;;30.56;10.72
73974;BME280;62336;-26.094;27.994;2023-06-26T10:17:22;85126.80;;;30.30;10.66
73974;BME280;62336;-26.094;27.994;2023-06-26T10:19:48;85122.41;;;31.01;10.44
73974;BME280;62336;-26.094;27.994;2023-06-26T10:22:16;85116.27;;;30.90;10.56
73974;BME280;62336;-26.094;27.994;2023-06-26T10:24:40;85107.25;;;31.19;10.10
73974;BME280;62336;-26.094;27.994;2023-06-26T10:27:08;85104.12;;;31.25;10.37
73974;BME280;62336;-26.094;27.994;2023-06-26T10:29:30;85098.45;;;30.89;10.62
73974;BME280;62336;-26.094;27.994;2023-06-26T10:31:57;85095.75;;;30.61;10.39
73974;BME280;62336;-26.094;27.994;2023-06-26T10:34:19;85086.66;;;31.02;10.44
73974;BME280;62336;-26.094;27.994;2023-06-26T10:36:44;85078.38;;;30.90;10.99
73974;BME280;62336;-26.094;27.994;2023-06-26T10:39:09;85076.34;;;30.45;10.92
73974;BME280;62336;-26.094;27.994;2023-06-26T10:41:38;85074.55;;;30.71;10.67
73974;BME280;62336;-26.094;27.994;2023-06-26T10:44:10;85071.90;;;30.97;10.22
73974;BME280;62336;-26.094;27.994;2023-06-26T10:46:27;85067.61;;;31.12;10.56
73974;BME280;62336;-26.094;27.994;2023-06-26T10:48:59;85068.08;;;31.21;10.23
73974;BME280;62336;-26.094;27.994;2023-06-26T10:51:19;85064.37;;;30.91;10.33
73974;BME280;62336;-26.094;27.994;2023-06-26T10:53:42;85055.03;;;30.75;10.54
73974;BME280;62336;-26.094;27.994;2023-06-26T10:56:06;85052.66;;;31.37;10.17
73974;BME280;62336;-26.094;27.994;2023-06-26T10:58:33;85048.13;;;30.90;10.01
73974;BME280;62336;-26.094;27.994;2023-06-26T11:03:26;85042.18;;;30.96;10.28
73974;BME280;62336;-26.094;27.994;2023-06-26T11:08:13;85036.40;;;31.43;10.04
73974;BME280;62336;-26.094;27.994;2023-06-26T11:10:51;85031.64;;;31.15;9.83
73974;BME280;62336;-26.094;27.994;2023-06-26T11:13:06;85024.39;;;31.52;9.88
73974;BME280;62336;-26.094;27.994;2023-06-26T11:15:28;85021.29;;;30.77;10.11
73974;BME280;62336;-26.094;27.994;2023-06-26T11:17:55;85015.42;;;30.40;10.37
73974;BME280;62336;-26.094;27.994;2023-06-26T11:20:18;85012.92;;;31.26;9.72
73974;BME280;62336;-26.094;27.994;2023-06-26T11:22:44;85010.49;;;31.12;9.76
73974;BME280;62336;-26.094;27.994;2023-06-26T11:25:12;85008.81;;;30.96;9.95
73974;BME280;62336;-26.094;27.994;2023-06-26T11:27:39;85009.39;;;30.74;9.92
73974;BME280;62336;-26.094;27.994;2023-06-26T11:30:01;85007.83;;;31.33;9.60
73974;BME280;62336;-26.094;27.994;2023-06-26T11:32:27;85004.97;;;31.12;9.50
73974;BME280;62336;-26.094;27.994;2023-06-26T11:34:51;85001.90;;;31.45;9.28
73974;BME280;62336;-26.094;27.994;2023-06-26T11:37:17;84996.03;;;31.48;9.36
73974;BME280;62336;-26.094;27.994;2023-06-26T11:39:43;84989.68;;;31.90;9.09
73974;BME280;62336;-26.094;27.994;2023-06-26T11:42:08;84988.15;;;32.70;8.70
73974;BME280;62336;-26.094;27.994;2023-06-26T11:44:40;84983.61;;;31.77;9.10
73974;BME280;62336;-26.094;27.994;2023-06-26T11:46:59;84978.03;;;31.15;9.37
73974;BME280;62336;-26.094;27.994;2023-06-26T11:49:24;84975.66;;;31.24;9.19
73974;BME280;62336;-26.094;27.994;2023-06-26T11:51:51;84974.91;;;31.12;9.11
73974;BME280;62336;-26.094;27.994;2023-06-26T11:54:16;84977.24;;;31.44;9.46
73974;BME280;62336;-26.094;27.994;2023-06-26T11:56:40;84972.17;;;31.38;9.57
73974;BME280;62336;-26.094;27.994;2023-06-26T11:59:06;84971.98;;;31.14;9.26
73974;BME280;62336;-26.094;27.994;2023-06-26T12:01:34;84967.81;;;31.01;8.87
73974;BME280;62336;-26.094;27.994;2023-06-26T12:04:00;84962.27;;;32.10;8.38
73974;BME280;62336;-26.094;27.994;2023-06-26T12:06:21;84956.68;;;31.12;9.60
73974;BME280;62336;-26.094;27.994;2023-06-26T12:08:47;84960.09;;;31.80;9.10
73974;BME280;62336;-26.094;27.994;2023-06-26T12:11:13;84957.29;;;31.38;8.85
73974;BME280;62336;-26.094;27.994;2023-06-26T12:13:37;84958.57;;;32.36;8.89
73974;BME280;62336;-26.094;27.994;2023-06-26T12:16:03;84956.51;;;31.12;9.28
73974;BME280;62336;-26.094;27.994;2023-06-26T12:18:33;84951.59;;;31.44;8.82
73974;BME280;62336;-26.094;27.994;2023-06-26T12:20:54;84948.57;;;31.61;8.81
73974;BME280;62336;-26.094;27.994;2023-06-26T12:23:19;84948.65;;;31.68;8.51
73974;BME280;62336;-26.094;27.994;2023-06-26T12:25:44;84945.44;;;31.96;8.76
73974;BME280;62336;-26.094;27.994;2023-06-26T12:28:17;84947.51;;;31.90;8.87
73974;BME280;62336;-26.094;27.994;2023-06-26T12:30:35;84946.15;;;32.06;8.56
73974;BME280;62336;-26.094;27.994;2023-06-26T12:33:01;84943.32;;;32.18;8.52
73974;BME280;62336;-26.094;27.994;2023-06-26T12:35:28;84943.92;;;32.03;8.42